Time;durP1;ratioP1;P1;durP2;ratioP2;P2;SDS_P1;SDS_P2;PMS_P1;PMS_P2;Temp;Humidity;BMP_temperature;BMP_pressure;BME280_temperature;BME280_humidity;BME280_pressure;Samples;Min_cycle;Max_cycle;Signal;HPM_P1;HPM_P2
2024/01/24 00:00:33;;;;;;;14.90;3.38;;;;;;;9.82;100.00;100633.72;4980663;28;20061;-80
2024/01/24 00:03:01;;;;;;;15.07;3.45;;;;;;;9.83;100.00;100630.19;4995464;28;20049;-79
2024/01/24 00:05:29;;;;;;;13.35;4.57;;;;;;;9.84;100.00;100639.84;5009817;28;20069;-79
2024/01/24 00:07:57;;;;;;;16.45;3.95;;;;;;;9.86;100.00;100648.63;5009784;28;20597;-79
2024/01/24 00:10:24;;;;;;;15.57;3.95;;;;;;;9.85;100.00;100631.97;5026165;28;20049;-79
2024/01/24 00:12:51;;;;;;;12.48;3.22;;;;;;;9.87;100.00;100647.78;5020255;28;20049;-79
2024/01/24 00:15:19;;;;;;;13.93;3.38;;;;;;;9.87;100.00;100635.50;4984912;28;20499;-79
2024/01/24 00:17:47;;;;;;;11.93;3.60;;;;;;;9.88;100.00;100652.16;5025285;28;20045;-79
2024/01/24 00:20:14;;;;;;;21.67;4.20;;;;;;;9.90;100.00;100647.75;5010014;28;20049;-79
2024/01/24 00:22:42;;;;;;;16.45;4.30;;;;;;;9.91;100.00;100628.47;4972946;28;20526;-79
2024/01/24 00:25:09;;;;;;;13.00;3.05;;;;;;;9.93;100.00;100668.84;5027476;28;20046;-80
2024/01/24 00:27:36;;;;;;;15.55;3.60;;;;;;;9.92;100.00;100636.38;4992340;28;20088;-79
2024/01/24 00:30:05;;;;;;;11.80;3.08;;;;;;;9.93;100.00;100646.03;5021266;28;20095;-79
2024/01/24 00:32:32;;;;;;;15.38;4.28;;;;;;;9.94;100.00;100641.63;4978568;28;20058;-79
2024/01/24 00:35:00;;;;;;;17.40;3.95;;;;;;;9.94;100.00;100623.19;4995381;28;20408;-79
2024/01/24 00:37:28;;;;;;;17.42;3.65;;;;;;;9.94;100.00;100639.91;5000277;28;20054;-79
2024/01/24 00:39:55;;;;;;;13.13;3.50;;;;;;;9.95;100.00;100625.84;5000403;28;20049;-79
2024/01/24 00:42:23;;;;;;;12.60;2.80;;;;;;;9.96;100.00;100616.19;5007719;28;20049;-80
2024/01/24 00:44:51;;;;;;;17.73;3.80;;;;;;;9.97;100.00;100607.44;5000623;28;20056;-79
2024/01/24 00:47:19;;;;;;;22.63;4.78;;;;;;;9.99;100.00;100610.06;4978763;28;20046;-79
2024/01/24 00:49:46;;;;;;;18.55;4.13;;;;;;;9.98;100.00;100610.94;5009798;28;20060;-79
2024/01/24 00:52:14;;;;;;;21.73;3.85;;;;;;;9.95;100.00;100577.59;5026572;28;20081;-80
2024/01/24 00:54:41;;;;;;;19.10;4.13;;;;;;;9.93;100.00;100592.50;5002277;28;20475;-79
2024/01/24 00:57:09;;;;;;;17.48;4.50;;;;;;;9.93;100.00;100576.72;5028075;28;20431;-79
2024/01/24 00:59:36;;;;;;;26.77;4.20;;;;;;;9.93;100.00;100589.88;5001038;28;20061;-79
2024/01/24 01:02:03;;;;;;;18.27;3.83;;;;;;;9.91;100.00;100584.59;5026351;28;20482;-80
2024/01/24 01:04:31;;;;;;;18.10;4.18;;;;;;;9.91;100.00;100584.59;5002327;28;20060;-79
2024/01/24 01:06:58;;;;;;;14.90;4.18;;;;;;;9.93;100.00;100577.59;5010294;28;20045;-79
2024/01/24 01:09:26;;;;;;;16.80;3.20;;;;;;;9.94;100.00;100588.97;4997738;28;20065;-79
2024/01/24 01:11:53;;;;;;;21.77;4.18;;;;;;;9.95;100.00;100588.13;5027561;28;20046;-79
2024/01/24 01:14:21;;;;;;;18.38;3.63;;;;;;;9.96;100.00;100576.69;5000208;28;20053;-79
2024/01/24 01:16:48;;;;;;;17.98;3.88;;;;;;;9.95;100.00;100559.16;5025314;28;20553;-79
2024/01/24 01:19:19;;;;;;;14.88;2.90;;;;;;;9.96;100.00;100584.59;4962853;28;20060;-79
2024/01/24 01:21:47;;;;;;;17.98;3.58;;;;;;;9.97;100.00;100556.53;5026735;28;20682;-79
2024/01/24 01:24:16;;;;;;;14.50;2.90;;;;;;;9.95;100.00;100552.13;4999451;28;20051;-79
2024/01/24 01:26:43;;;;;;;16.80;3.58;;;;;;;9.94;100.00;100546.88;5008318;28;20046;-79
2024/01/24 01:29:11;;;;;;;18.88;3.67;;;;;;;9.94;100.00;100575.81;5008170;28;20438;-79
2024/01/24 01:31:38;;;;;;;12.15;3.50;;;;;;;9.91;100.00;100546.88;5000805;28;20059;-79
2024/01/24 01:34:05;;;;;;;24.02;3.35;;;;;;;9.91;100.00;100560.91;4976940;28;20045;-79
2024/01/24 01:36:33;;;;;;;12.13;2.83;;;;;;;9.91;100.00;100578.47;5007731;28;20474;-80
2024/01/24 01:39:00;;;;;;;12.32;2.55;;;;;;;9.93;100.00;100540.72;4993608;28;20050;-79
2024/01/24 01:41:28;;;;;;;15.30;3.22;;;;;;;9.95;100.00;100559.16;5007028;28;20064;-79
2024/01/24 01:43:55;;;;;;;12.38;2.92;;;;;;;9.98;100.00;100553.03;4992623;28;20041;-79
2024/01/24 01:46:25;;;;;;;13.43;2.97;;;;;;;10.02;100.00;100566.19;5015073;28;20052;-80
2024/01/24 01:48:56;;;;;;;18.85;3.08;;;;;;;10.07;100.00;100551.25;4992772;28;20056;-79
2024/01/24 01:51:24;;;;;;;13.43;2.72;;;;;;;10.11;100.00;100560.03;4978742;28;20050;-79
2024/01/24 01:53:52;;;;;;;11.38;2.90;;;;;;;10.14;100.00;100563.56;5008880;28;20612;-79
2024/01/24 01:56:22;;;;;;;15.88;2.88;;;;;;;10.20;100.00;100559.19;4999954;28;20054;-80
2024/01/24 01:58:50;;;;;;;10.48;2.30;;;;;;;10.24;100.00;100547.75;5009657;28;20045;-79
2024/01/24 02:01:17;;;;;;;13.90;3.00;;;;;;;10.25;100.00;100566.22;5025044;28;20487;-80
2024/01/24 02:03:48;;;;;;;7.47;1.92;;;;;;;10.26;100.00;100561.81;4996949;28;20057;-79
2024/01/24 02:06:16;;;;;;;15.27;2.70;;;;;;;10.26;100.00;100572.34;4978689;28;20056;-80
2024/01/24 02:08:44;;;;;;;9.60;2.45;;;;;;;10.27;100.00;100574.13;5008991;28;20053;-79
2024/01/24 02:11:12;;;;;;;10.27;2.88;;;;;;;10.27;100.00;100561.81;5000651;28;20049;-80
2024/01/24 02:13:39;;;;;;;9.00;2.67;;;;;;;10.30;100.00;100577.66;5007987;28;20053;-79
2024/01/24 02:16:09;;;;;;;13.68;3.08;;;;;;;10.31;100.00;100574.13;5001899;28;20061;-79
2024/01/24 02:18:37;;;;;;;12.10;2.95;;;;;;;10.36;100.00;100568.88;4998298;28;20073;-79
2024/01/24 02:21:04;;;;;;;10.68;2.38;;;;;;;10.41;100.00;100587.31;4969959;28;20050;-79
2024/01/24 02:23:32;;;;;;;15.25;2.85;;;;;;;10.41;100.00;100575.00;5012212;28;20491;-79
2024/01/24 02:25:59;;;;;;;10.65;2.05;;;;;;;10.42;100.00;100558.34;4978618;28;20053;-79
2024/01/24 02:28:27;;;;;;;8.98;2.05;;;;;;;10.43;100.00;100552.16;4990117;28;20057;-79
2024/01/24 02:30:55;;;;;;;11.07;2.20;;;;;;;10.43;100.00;100565.34;4986832;28;20495;-80
2024/01/24 02:33:22;;;;;;;14.90;2.72;;;;;;;10.44;100.00;100567.09;4983176;28;20411;-79
2024/01/24 02:35:50;;;;;;;10.73;2.63;;;;;;;10.44;100.00;100556.56;4986290;28;20037;-80
2024/01/24 02:38:18;;;;;;;9.48;2.65;;;;;;;10.45;100.00;100544.28;4970789;28;20061;-81
2024/01/24 02:40:45;;;;;;;10.32;2.30;;;;;;;10.42;100.00;100553.06;4998909;28;20038;-80
2024/01/24 02:43:13;;;;;;;8.68;2.22;;;;;;;10.42;100.00;100560.97;4971568;28;20053;-79
2024/01/24 02:45:40;;;;;;;7.78;2.17;;;;;;;10.46;100.00;100540.78;4988734;28;20078;-79
2024/01/24 02:48:08;;;;;;;12.77;2.35;;;;;;;10.50;100.00;100585.53;4979220;28;20518;-80
2024/01/24 02:50:35;;;;;;;13.25;3.08;;;;;;;10.54;100.00;100547.75;5006295;28;20422;-79
2024/01/24 02:53:03;;;;;;;7.05;2.38;;;;;;;10.61;100.00;100574.13;4956624;28;20045;-80
2024/01/24 02:55:30;;;;;;;14.73;3.00;;;;;;;10.60;100.00;100560.06;4983158;28;20047;-79
2024/01/24 02:57:58;;;;;;;7.75;1.90;;;;;;;10.60;100.00;100580.25;5004254;28;20464;-79
2024/01/24 03:00:27;;;;;;;10.95;2.80;;;;;;;10.63;100.00;100572.38;4989805;28;20053;-79
2024/01/24 03:02:55;;;;;;;9.25;2.20;;;;;;;10.63;100.00;100586.41;4986589;28;20516;-79
2024/01/24 03:05:22;;;;;;;9.27;2.17;;;;;;;10.61;100.00;100585.53;4981303;28;20046;-79
2024/01/24 03:07:50;;;;;;;12.85;2.65;;;;;;;10.61;100.00;100587.31;4971947;28;20125;-79
2024/01/24 03:10:17;;;;;;;15.68;2.95;;;;;;;10.61;100.00;100579.41;4987817;28;20050;-79
2024/01/24 03:12:44;;;;;;;15.63;2.78;;;;;;;10.57;100.00;100581.16;4980328;28;20053;-80
2024/01/24 03:15:12;;;;;;;10.82;2.53;;;;;;;10.58;100.00;100579.38;4988807;28;20042;-79
2024/01/24 03:17:39;;;;;;;12.88;2.90;;;;;;;10.58;100.00;100584.66;5007721;28;20062;-79
2024/01/24 03:20:07;;;;;;;13.32;2.78;;;;;;;10.54;100.00;100611.00;4999423;28;20141;-79
2024/01/24 03:22:35;;;;;;;16.40;3.22;;;;;;;10.53;100.00;100604.00;4992440;28;20068;-79
2024/01/24 03:25:02;;;;;;;12.02;2.88;;;;;;;10.51;100.00;100597.84;4975955;28;20484;-79
2024/01/24 03:27:30;;;;;;;16.40;3.83;;;;;;;10.48;100.00;100596.97;5017803;28;20120;-79
2024/01/24 03:29:58;;;;;;;13.32;3.50;;;;;;;10.43;100.00;100609.25;5006539;28;20060;-80
2024/01/24 03:32:26;;;;;;;14.02;3.17;;;;;;;10.37;100.00;100599.59;4992258;28;20056;-79
2024/01/24 03:34:55;;;;;;;18.95;4.53;;;;;;;10.31;100.00;100615.41;5002039;28;20041;-80
2024/01/24 03:37:23;;;;;;;13.27;3.25;;;;;;;10.28;100.00;100623.25;5025485;28;20041;-79
2024/01/24 03:39:50;;;;;;;18.17;4.40;;;;;;;10.24;100.00;100619.75;4990156;28;20041;-80
2024/01/24 03:42:18;;;;;;;13.30;3.25;;;;;;;10.19;100.00;100626.78;5005823;28;20051;-80
2024/01/24 03:44:45;;;;;;;18.20;3.90;;;;;;;10.15;100.00;100617.09;4995135;28;20049;-79
2024/01/24 03:47:14;;;;;;;27.92;4.70;;;;;;;10.13;100.00;100618.84;5001554;28;20407;-79
2024/01/24 03:49:41;;;;;;;16.38;3.47;;;;;;;10.07;100.00;100619.72;4995910;28;20049;-79
2024/01/24 03:52:09;;;;;;;20.23;3.47;;;;;;;10.03;100.00;100596.91;5002165;28;20052;-79
2024/01/24 03:54:37;;;;;;;16.50;3.33;;;;;;;10.02;100.00;100595.16;5012159;28;20467;-79
2024/01/24 03:57:04;;;;;;;16.73;3.47;;;;;;;10.01;100.00;100611.81;5008473;28;20430;-79
2024/01/24 03:59:32;;;;;;;14.48;3.17;;;;;;;10.01;100.00;100614.44;5005670;28;20057;-79
2024/01/24 04:01:59;;;;;;;22.27;4.32;;;;;;;10.00;100.00;100565.31;5009208;28;20112;-79
2024/01/24 04:04:26;;;;;;;16.48;3.78;;;;;;;10.00;100.00;100627.59;5029547;28;20056;-79
2024/01/24 04:06:54;;;;;;;23.05;4.45;;;;;;;9.98;100.00;100619.72;5000463;28;20533;-79
2024/01/24 04:09:22;;;;;;;21.40;4.45;;;;;;;9.98;100.00;100619.72;4980506;28;20041;-79
2024/01/24 04:11:49;;;;;;;19.38;4.30;;;;;;;10.00;100.00;100612.72;5020657;28;20053;-79
2024/01/24 04:14:17;;;;;;;16.38;3.90;;;;;;;10.01;100.00;100629.38;5021522;28;20057;-79
2024/01/24 04:16:45;;;;;;;23.35;4.93;;;;;;;10.00;100.00;100612.72;5011075;28;20044;-79
2024/01/24 04:19:12;;;;;;;27.33;5.18;;;;;;;10.01;100.00;100630.25;5023407;28;20056;-79
2024/01/24 04:21:43;;;;;;;16.77;4.20;;;;;;;10.02;100.00;100634.66;5010017;28;20494;-79
2024/01/24 04:24:12;;;;;;;21.98;4.82;;;;;;;10.03;100.00;100630.25;4953544;28;20416;-80
2024/01/24 04:26:39;;;;;;;18.45;3.70;;;;;;;10.02;100.00;100639.00;4999571;28;20068;-79
2024/01/24 04:29:07;;;;;;;14.20;3.42;;;;;;;10.00;100.00;100633.78;4975170;28;20491;-79
2024/01/24 04:31:41;;;;;;;20.83;4.70;;;;;;;10.01;100.00;100653.06;4992993;28;20045;-79
2024/01/24 04:34:08;;;;;;;14.85;4.18;;;;;;;10.00;100.00;100631.13;4990759;28;20062;-79
2024/01/24 04:36:36;;;;;;;17.38;4.38;;;;;;;10.01;100.00;100646.03;5011022;28;20376;-79
2024/01/24 04:39:03;;;;;;;16.77;4.30;;;;;;;9.99;100.00;100639.03;5000347;28;20076;-79
2024/01/24 04:41:33;;;;;;;21.20;4.63;;;;;;;9.94;100.00;100628.47;4946194;28;20067;-79
2024/01/24 04:44:04;;;;;;;22.38;4.95;;;;;;;9.88;100.00;100629.34;4988505;28;20625;-79
2024/01/24 04:46:32;;;;;;;25.80;4.63;;;;;;;9.85;100.00;100628.44;4985029;28;20419;-79
2024/01/24 04:48:59;;;;;;;20.83;4.57;;;;;;;9.82;100.00;100671.44;5004070;28;20191;-79
2024/01/24 04:51:29;;;;;;;25.08;5.05;;;;;;;9.81;100.00;100676.69;5008782;28;20483;-79
2024/01/24 04:53:57;;;;;;;24.08;4.70;;;;;;;9.76;100.00;100680.19;4983399;28;20049;-79
2024/01/24 04:56:24;;;;;;;26.15;5.95;;;;;;;9.71;100.00;100674.00;4979571;28;20049;-79
2024/01/24 04:58:52;;;;;;;19.30;4.70;;;;;;;9.64;100.00;100677.50;4989592;28;20053;-79
2024/01/24 05:01:19;;;;;;;30.88;6.72;;;;;;;9.59;100.00;100689.75;4978223;28;20054;-79
2024/01/24 05:03:47;;;;;;;27.20;5.20;;;;;;;9.57;100.00;100702.03;4976616;28;20542;-79
2024/01/24 05:06:15;;;;;;;29.30;5.68;;;;;;;9.54;100.00;100670.44;4989425;28;20042;-79
2024/01/24 05:08:43;;;;;;;22.02;5.03;;;;;;;9.50;100.00;100703.75;4985973;28;20052;-81
2024/01/24 05:11:10;;;;;;;24.67;5.93;;;;;;;9.47;100.00;100671.28;4982214;28;20046;-79
2024/01/24 05:13:38;;;;;;;29.05;6.00;;;;;;;9.45;100.00;100717.72;4947520;28;20048;-79
2024/01/24 05:16:05;;;;;;;22.23;5.35;;;;;;;9.44;100.00;100697.59;5004260;28;20046;-79
2024/01/24 05:18:33;;;;;;;33.13;5.97;;;;;;;9.43;100.00;100698.44;4990631;28;20487;-79
2024/01/24 05:21:02;;;;;;;19.95;4.93;;;;;;;9.41;100.00;100694.91;5004230;28;20052;-79
2024/01/24 05:23:29;;;;;;;27.17;5.72;;;;;;;9.41;100.00;100697.56;4953314;28;20065;-80
2024/01/24 05:26:01;;;;;;;29.80;5.88;;;;;;;9.38;100.00;100713.34;4981241;28;20046;-79
2024/01/24 05:28:28;;;;;;;31.65;5.18;;;;;;;9.36;100.00;100703.66;4933462;28;20050;-79
2024/01/24 05:30:56;;;;;;;35.92;7.60;;;;;;;9.33;100.00;100722.03;5004361;28;20064;-79
2024/01/24 05:33:24;;;;;;;26.50;6.20;;;;;;;9.33;100.00;100715.91;4961804;28;20061;-79
2024/01/24 05:35:52;;;;;;;34.72;6.60;;;;;;;9.31;100.00;100717.66;4973341;28;20488;-79
2024/01/24 05:38:19;;;;;;;26.33;7.18;;;;;;;9.28;100.00;100729.06;4991469;28;20050;-80
2024/01/24 05:40:47;;;;;;;36.17;6.78;;;;;;;9.25;100.00;100723.75;4993514;28;20050;-79
2024/01/24 05:43:14;;;;;;;30.20;6.30;;;;;;;9.29;100.00;100737.81;4972470;28;20050;-79
2024/01/24 05:45:42;;;;;;;30.70;7.22;;;;;;;9.32;100.00;100732.59;4976883;28;20506;-79
2024/01/24 05:48:10;;;;;;;35.80;7.45;;;;;;;9.33;100.00;100740.47;4988139;28;20507;-79
2024/01/24 05:50:37;;;;;;;25.77;6.93;;;;;;;9.37;100.00;100759.78;4997800;28;20053;-79
2024/01/24 05:53:04;;;;;;;30.20;6.20;;;;;;;9.39;100.00;100757.16;4973128;28;20053;-79
2024/01/24 05:55:32;;;;;;;34.42;5.85;;;;;;;9.42;100.00;100783.50;4967994;28;20072;-78
2024/01/24 05:57:59;;;;;;;39.35;6.82;;;;;;;9.43;100.00;100777.34;4979931;28;20054;-79
2024/01/24 06:00:26;;;;;;;33.53;7.38;;;;;;;9.43;100.00;100764.19;4952757;28;20065;-79
2024/01/24 06:02:54;;;;;;;36.40;6.72;;;;;;;9.42;100.00;100765.94;4980314;28;20046;-78
2024/01/24 06:05:22;;;;;;;38.83;7.53;;;;;;;9.40;100.00;100782.59;4974160;28;20053;-79
2024/01/24 06:07:49;;;;;;;33.30;7.63;;;;;;;9.34;100.00;100776.41;4973415;28;20415;-80
2024/01/24 06:10:17;;;;;;;36.47;6.60;;;;;;;9.29;100.00;100779.88;4963361;28;20097;-78
2024/01/24 06:12:44;;;;;;;37.97;7.93;;;;;;;9.23;100.00;100785.97;4976771;28;20061;-81
2024/01/24 06:15:12;;;;;;;43.83;7.18;;;;;;;9.16;100.00;100786.78;4976423;28;20053;-81
2024/01/24 06:17:41;;;;;;;34.50;7.55;;;;;;;9.12;100.00;100777.13;4990308;28;20049;-81
2024/01/24 06:20:09;;;;;;;38.22;7.13;;;;;;;9.07;100.00;100794.59;4965629;28;20057;-81
2024/01/24 06:22:36;;;;;;;32.15;6.97;;;;;;;9.06;100.00;100795.47;5005748;28;20391;-80
2024/01/24 06:25:07;;;;;;;38.25;7.70;;;;;;;9.08;100.00;100804.25;4977052;28;20049;-81
2024/01/24 06:27:35;;;;;;;21.00;6.60;;;;;;;9.08;100.00;100783.22;4994605;28;20049;-81
2024/01/24 06:30:05;;;;;;;27.13;6.35;;;;;;;9.10;100.00;100799.91;4980737;28;20054;-81
2024/01/24 06:32:49;;;;;;;37.25;7.93;;;;;;;9.12;100.00;100808.66;4961279;28;20057;-81
2024/01/24 06:35:17;;;;;;;37.78;8.55;;;;;;;9.10;100.00;100831.44;4974479;28;20053;-81
2024/01/24 06:37:45;;;;;;;37.88;7.82;;;;;;;9.07;100.00;100805.97;4980720;28;20519;-80
2024/01/24 06:40:14;;;;;;;33.58;6.18;;;;;;;9.03;100.00;100813.84;4971865;28;20777;-80
2024/01/24 06:42:42;;;;;;;34.67;6.78;;;;;;;9.01;100.00;100797.19;4973110;28;20054;-80
2024/01/24 06:45:10;;;;;;;37.03;7.20;;;;;;;8.97;100.00;100817.28;4987177;28;20045;-80
2024/01/24 06:47:37;;;;;;;35.85;7.90;;;;;;;8.92;100.00;100825.16;4974346;28;20403;-79
2024/01/24 06:50:07;;;;;;;44.53;8.52;;;;;;;8.88;100.00;100825.09;4983782;28;20065;-80
2024/01/24 06:52:35;;;;;;;38.17;8.23;;;;;;;8.84;100.00;100834.69;4977110;28;20057;-80
2024/01/24 06:55:03;;;;;;;40.15;7.65;;;;;;;8.82;100.00;100836.41;4986840;28;20315;-80
2024/01/24 06:57:31;;;;;;;35.78;8.15;;;;;;;8.78;100.00;100810.97;4977954;28;20057;-80
2024/01/24 06:59:58;;;;;;;40.78;7.65;;;;;;;8.75;100.00;100818.81;4976879;28;20120;-80
2024/01/24 07:02:27;;;;;;;31.25;7.55;;;;;;;8.74;100.00;100838.09;4970063;28;20063;-80
2024/01/24 07:04:54;;;;;;;40.22;7.60;;;;;;;8.74;100.00;100853.88;4988284;28;20058;-80
2024/01/24 07:07:22;;;;;;;36.40;7.40;;;;;;;8.72;100.00;100858.22;4962695;28;20061;-79
2024/01/24 07:09:50;;;;;;;32.45;7.97;;;;;;;8.74;100.00;100867.00;4973405;28;20499;-81
2024/01/24 07:12:20;;;;;;;37.38;7.70;;;;;;;8.77;100.00;100846.00;4978881;28;20046;-80
2024/01/24 07:14:51;;;;;;;41.88;8.90;;;;;;;8.81;100.00;100849.53;4997925;28;20058;-80
2024/01/24 07:17:20;;;;;;;44.38;9.05;;;;;;;8.83;100.00;100846.09;4978856;28;20487;-80
2024/01/24 07:19:50;;;;;;;34.88;7.28;;;;;;;8.86;100.00;100868.88;4971114;28;20066;-80
2024/01/24 07:22:18;;;;;;;;;;;;;;;8.86;100.00;100869.75;5002125;28;20054;-79
2024/01/24 07:24:46;;;;;;;34.22;7.30;;;;;;;8.86;100.00;100874.13;5014153;28;19925;-80
2024/01/24 07:27:13;;;;;;;30.05;5.97;;;;;;;8.83;100.00;100881.97;4994732;28;20049;-80
2024/01/24 07:29:41;;;;;;;36.55;6.10;;;;;;;8.83;100.00;100888.13;5001422;28;20053;-80
2024/01/24 07:32:08;;;;;;;36.55;8.23;;;;;;;8.81;100.00;100876.72;4996188;28;20073;-79
2024/01/24 07:34:38;;;;;;;40.22;8.65;;;;;;;8.79;100.00;100883.69;4996710;28;20053;-80
2024/01/24 07:37:07;;;;;;;34.97;7.68;;;;;;;8.76;100.00;100894.16;5012680;28;20495;-80
2024/01/24 07:39:35;;;;;;;39.10;8.20;;;;;;;8.72;100.00;100903.75;5020025;28;20041;-79
2024/01/24 07:42:03;;;;;;;31.58;6.95;;;;;;;8.65;100.00;100906.28;5008322;28;20045;-80
2024/01/24 07:44:31;;;;;;;33.05;7.38;;;;;;;8.62;100.00;100907.16;5002097;28;20049;-80
2024/01/24 07:47:01;;;;;;;36.10;8.05;;;;;;;8.62;100.00;100919.38;5009088;28;20040;-80
2024/01/24 07:49:29;;;;;;;34.08;7.65;;;;;;;8.58;100.00;100897.44;4998693;28;20050;-79
2024/01/24 07:51:57;;;;;;;33.30;7.20;;;;;;;8.57;100.00;100929.84;5008641;28;20447;-78
2024/01/24 07:54:25;;;;;;;32.67;7.07;;;;;;;8.55;100.00;100913.19;5003943;28;20545;-78
2024/01/24 07:56:53;;;;;;;38.92;7.05;;;;;;;8.57;100.00;100924.59;5008613;28;20471;-79
2024/01/24 07:59:21;;;;;;;34.17;7.00;;;;;;;8.55;100.00;100937.69;5001289;28;20052;-79
2024/01/24 08:01:51;;;;;;;34.47;7.93;;;;;;;8.53;100.00;100918.41;5009486;28;20050;-78
2024/01/24 08:04:18;;;;;;;29.30;5.88;;;;;;;8.54;100.00;100946.47;5011291;28;20049;-79
2024/01/24 08:06:47;;;;;;;32.65;6.82;;;;;;;8.55;100.00;100931.56;4979489;28;20082;-80
2024/01/24 08:09:17;;;;;;;37.67;8.05;;;;;;;8.62;100.00;100961.41;5009342;28;20049;-80
2024/01/24 08:11:45;;;;;;;34.47;6.85;;;;;;;8.65;100.00;100933.44;5001474;28;20053;-79
2024/01/24 08:14:13;;;;;;;27.88;6.03;;;;;;;8.64;100.00;100954.44;4988797;28;20045;-80
2024/01/24 08:16:58;;;;;;;31.65;6.15;;;;;;;8.63;100.00;100955.31;4992464;28;20053;-81
2024/01/24 08:19:26;;;;;;;38.45;8.57;;;;;;;8.63;100.00;100979.81;5028162;28;20406;-80
2024/01/24 08:21:54;;;;;;;35.67;7.18;;;;;;;8.64;100.00;100976.34;4967447;28;20045;-80
2024/01/24 08:24:22;;;;;;;32.67;6.47;;;;;;;8.65;100.00;100985.97;5009706;28;20054;-80
2024/01/24 08:26:50;;;;;;;32.50;7.80;;;;;;;8.64;100.00;100967.56;5000883;28;20388;-80
2024/01/24 08:29:19;;;;;;;38.63;8.27;;;;;;;8.64;100.00;100981.59;4992399;28;20045;-80
2024/01/24 08:31:58;;;;;;;39.67;6.88;;;;;;;8.64;100.00;100975.44;4998855;28;20053;-80
2024/01/24 08:34:25;;;;;;;34.15;6.72;;;;;;;8.65;100.00;100987.72;4994492;28;20053;-80
2024/01/24 08:36:54;;;;;;;40.65;8.27;;;;;;;8.66;100.00;100997.38;4960649;28;20045;-77
2024/01/24 08:39:21;;;;;;;23.92;6.32;;;;;;;8.65;100.00;100966.72;4992935;28;20410;-81
2024/01/24 08:41:49;;;;;;;42.83;6.93;;;;;;;8.64;100.00;101002.63;5000085;28;20064;-80
2024/01/24 08:44:16;;;;;;;43.00;7.13;;;;;;;8.64;100.00;100992.13;5010080;28;20045;-80
2024/01/24 08:46:43;;;;;;;31.05;6.65;;;;;;;8.65;100.00;100999.13;4999781;28;20049;-80
2024/01/24 08:49:12;;;;;;;29.95;6.72;;;;;;;8.66;100.00;100993.00;4988691;28;20046;-79
2024/01/24 08:51:40;;;;;;;30.58;8.02;;;;;;;8.65;100.00;101028.00;4996846;28;20406;-80
2024/01/24 08:54:08;;;;;;;33.90;8.40;;;;;;;8.65;100.00;101038.53;5008392;28;20060;-79
2024/01/24 08:56:35;;;;;;;29.92;7.35;;;;;;;8.64;100.00;101020.09;4985110;28;20488;-80
2024/01/24 08:59:03;;;;;;;34.92;7.95;;;;;;;8.65;100.00;101022.75;5007653;28;20506;-80
2024/01/24 09:01:31;;;;;;;35.20;7.03;;;;;;;8.66;100.00;101027.16;5026174;28;20048;-78
2024/01/24 09:03:59;;;;;;;24.80;6.85;;;;;;;8.67;100.00;101046.44;4996450;28;20041;-80
2024/01/24 09:06:27;;;;;;;34.10;6.72;;;;;;;8.67;100.00;101038.53;5009453;28;20053;-80
2024/01/24 09:08:56;;;;;;;34.58;6.35;;;;;;;8.68;100.00;101042.97;4976112;28;20052;-80
2024/01/24 09:11:24;;;;;;;42.47;8.27;;;;;;;8.71;100.00;101027.22;4993259;28;20569;-78
2024/01/24 09:14:03;;;;;;;40.15;7.85;;;;;;;8.74;100.00;101024.66;4995084;28;20045;-78
2024/01/24 09:16:31;;;;;;;36.58;7.25;;;;;;;8.75;100.00;101039.53;5018590;28;20049;-78
2024/01/24 09:18:58;;;;;;;34.88;7.35;;;;;;;8.76;100.00;101052.69;4997125;28;20916;-80
2024/01/24 09:21:26;;;;;;;35.72;8.15;;;;;;;8.76;100.00;101047.44;5011256;28;20060;-80
2024/01/24 09:23:54;;;;;;;36.67;7.05;;;;;;;8.78;100.00;101068.47;4978449;28;20057;-80
2024/01/24 09:26:22;;;;;;;32.75;7.00;;;;;;;8.81;100.00;101078.16;4965219;28;20060;-80
2024/01/24 09:28:50;;;;;;;40.20;7.68;;;;;;;8.81;100.00;101079.06;5000116;28;20056;-80
2024/01/24 09:31:17;;;;;;;38.63;7.43;;;;;;;8.83;100.00;101068.53;4988771;28;20415;-80
2024/01/24 09:33:45;;;;;;;28.10;6.38;;;;;;;8.84;100.00;101065.94;4997187;28;20076;-80
2024/01/24 09:36:13;;;;;;;31.88;6.95;;;;;;;8.85;100.00;101074.72;5008053;28;20487;-79
2024/01/24 09:38:46;;;;;;;39.70;7.60;;;;;;;8.85;100.00;101078.22;4965583;28;20570;-79
2024/01/24 09:41:19;;;;;;;33.97;6.88;;;;;;;8.85;100.00;101109.75;5008702;28;20049;-79
2024/01/24 09:43:48;;;;;;;36.20;8.80;;;;;;;8.88;100.00;101101.03;5010138;28;20041;-79
2024/01/24 09:46:19;;;;;;;37.20;7.68;;;;;;;8.93;100.00;101112.50;5013079;28;20049;-79
2024/01/24 09:48:46;;;;;;;;;;;;;;;8.94;100.00;101127.38;5003756;28;20046;-79
2024/01/24 09:51:14;;;;;;;26.63;5.97;;;;;;;8.95;100.00;101140.56;5020567;28;19925;-79
2024/01/24 09:53:45;;;;;;;33.22;7.05;;;;;;;9.00;100.00;101137.09;4963432;28;20049;-80
2024/01/24 09:56:14;;;;;;;43.03;7.85;;;;;;;8.98;100.00;101132.72;5000210;28;20080;-78
2024/01/24 09:58:42;;;;;;;33.75;7.25;;;;;;;9.01;100.00;101137.13;5017171;28;20406;-79
2024/01/24 10:01:14;;;;;;;32.42;7.20;;;;;;;9.02;100.00;101132.75;5006879;28;20056;-80
2024/01/24 10:03:44;;;;;;;29.98;6.38;;;;;;;9.04;100.00;101154.72;5014344;28;20053;-80
2024/01/24 10:06:12;;;;;;;30.52;5.90;;;;;;;9.11;100.00;101143.41;5013642;28;20068;-80
2024/01/24 10:08:40;;;;;;;31.17;7.28;;;;;;;9.15;100.00;101145.25;4977233;28;20487;-80
2024/01/24 10:11:07;;;;;;;31.02;6.55;;;;;;;9.20;100.00;101140.03;5006323;28;20756;-79
2024/01/24 10:13:38;;;;;;;26.02;5.82;;;;;;;9.22;100.00;101157.56;5018111;28;20045;-79
2024/01/24 10:16:07;;;;;;;;;;;;;;;9.27;100.00;101179.56;4987852;28;20439;-80
2024/01/24 10:18:36;;;;;;;;;;;;;;;9.31;100.00;101154.19;4992856;28;19925;-80
2024/01/24 10:21:05;;;;;;;32.50;5.07;;;;;;;9.31;100.00;101185.75;4996456;28;19928;-80
2024/01/24 10:23:33;;;;;;;41.35;6.88;;;;;;;9.30;100.00;101178.72;5025044;28;20056;-80
2024/01/24 10:26:01;;;;;;;29.38;6.53;;;;;;;9.31;100.00;101188.38;4977707;28;20081;-80
2024/01/24 10:28:30;;;;;;;37.15;7.30;;;;;;;9.32;100.00;101180.53;4983756;28;20049;-80
2024/01/24 10:30:58;;;;;;;24.75;6.45;;;;;;;9.32;100.00;101191.03;4984036;28;20048;-81
2024/01/24 10:33:25;;;;;;;29.60;6.63;;;;;;;9.28;100.00;101194.50;4988081;28;20498;-80
2024/01/24 10:35:55;;;;;;;37.13;7.43;;;;;;;9.28;100.00;101205.03;5023282;28;20045;-80
2024/01/24 10:38:30;;;;;;;25.45;5.82;;;;;;;9.28;100.00;101188.34;4999301;28;20045;-81
2024/01/24 10:41:00;;;;;;;30.65;5.97;;;;;;;9.29;100.00;101198.00;4973167;28;20058;-81
2024/01/24 10:43:28;;;;;;;31.27;6.75;;;;;;;9.29;100.00;101201.50;5006109;28;20053;-80
2024/01/24 10:45:57;;;;;;;34.28;6.43;;;;;;;9.32;100.00;101213.84;5008372;28;20064;-80
2024/01/24 10:48:25;;;;;;;42.78;8.13;;;;;;;9.32;100.00;101213.84;5012285;28;20048;-80
2024/01/24 10:50:56;;;;;;;33.88;6.60;;;;;;;9.34;100.00;101205.09;5007430;28;20061;-80
2024/01/24 10:53:25;;;;;;;20.50;5.45;;;;;;;9.31;100.00;101230.47;5002367;28;20653;-79
2024/01/24 10:55:53;;;;;;;36.20;7.72;;;;;;;9.29;100.00;101225.19;5001010;28;20053;-80
2024/01/24 10:58:22;;;;;;;29.48;6.50;;;;;;;9.30;100.00;101239.22;5006478;28;20077;-79
2024/01/24 11:00:51;;;;;;;29.35;6.53;;;;;;;9.28;100.00;101238.31;5011978;28;20053;-79
2024/01/24 11:03:19;;;;;;;34.28;6.70;;;;;;;9.30;100.00;101234.84;4995002;28;20053;-80
2024/01/24 11:05:54;;;;;;;25.38;6.72;;;;;;;9.32;100.00;101232.25;5033793;28;20049;-81
2024/01/24 11:08:30;;;;;;;28.83;5.57;;;;;;;9.33;100.00;101248.03;4978802;28;20053;-79
2024/01/24 11:11:13;;;;;;;35.13;7.10;;;;;;;9.35;100.00;101261.22;4984916;28;20506;-80
2024/01/24 11:13:42;;;;;;;22.80;5.07;;;;;;;9.32;100.00;101254.16;5021727;28;20110;-79
2024/01/24 11:16:25;;;;;;;24.45;6.32;;;;;;;9.32;100.00;101248.91;5030350;28;20419;-80
2024/01/24 11:18:57;;;;;;;36.40;6.72;;;;;;;9.33;100.00;101276.97;5023670;28;20447;-79
2024/01/24 11:21:28;;;;;;;20.77;5.45;;;;;;;9.35;100.00;101258.56;5026975;28;20063;-80